sensor_id;sensor_type;location;lat;lon;timestamp;temperature;humidity
30150;DHT22;16962;48.646;9.026;2023-06-19T00:01:23;21.70;87.80
30150;DHT22;16962;48.646;9.026;2023-06-19T00:04:11;21.60;98.80
30150;DHT22;16962;48.646;9.026;2023-06-19T00:07:03;21.70;84.60
30150;DHT22;16962;48.646;9.026;2023-06-19T00:09:50;21.70;69.70
30150;DHT22;16962;48.646;9.026;2023-06-19T00:12:40;21.80;71.90
30150;DHT22;16962;48.646;9.026;2023-06-19T00:15:27;21.70;64.90
30150;DHT22;16962;48.646;9.026;2023-06-19T00:18:17;21.70;54.80
30150;DHT22;16962;48.646;9.026;2023-06-19T00:21:07;21.70;46.00
30150;DHT22;16962;48.646;9.026;2023-06-19T00:23:55;21.70;66.30
30150;DHT22;16962;48.646;9.026;2023-06-19T00:26:42;21.70;93.40
30150;DHT22;16962;48.646;9.026;2023-06-19T00:29:30;21.60;87.70
30150;DHT22;16962;48.646;9.026;2023-06-19T00:32:19;21.60;79.70
30150;DHT22;16962;48.646;9.026;2023-06-19T00:35:07;21.60;82.30
30150;DHT22;16962;48.646;9.026;2023-06-19T00:37:55;21.60;82.10
30150;DHT22;16962;48.646;9.026;2023-06-19T00:40:42;21.50;92.00
30150;DHT22;16962;48.646;9.026;2023-06-19T00:43:32;21.30;85.00
30150;DHT22;16962;48.646;9.026;2023-06-19T00:46:19;21.30;90.50
30150;DHT22;16962;48.646;9.026;2023-06-19T00:49:07;21.20;99.00
30150;DHT22;16962;48.646;9.026;2023-06-19T00:51:55;21.20;96.90
30150;DHT22;16962;48.646;9.026;2023-06-19T00:54:43;21.20;99.30
30150;DHT22;16962;48.646;9.026;2023-06-19T00:57:30;21.20;93.10
30150;DHT22;16962;48.646;9.026;2023-06-19T01:00:18;21.30;99.90
30150;DHT22;16962;48.646;9.026;2023-06-19T01:03:08;21.30;92.10
30150;DHT22;16962;48.646;9.026;2023-06-19T01:05:56;21.40;97.50
30150;DHT22;16962;48.646;9.026;2023-06-19T01:08:58;21.50;76.90
30150;DHT22;16962;48.646;9.026;2023-06-19T01:11:54;21.50;99.90
30150;DHT22;16962;48.646;9.026;2023-06-19T01:15:03;21.50;99.90
30150;DHT22;16962;48.646;9.026;2023-06-19T01:17:51;21.30;99.90
30150;DHT22;16962;48.646;9.026;2023-06-19T01:20:39;21.10;94.10
30150;DHT22;16962;48.646;9.026;2023-06-19T01:23:26;21.10;97.90
30150;DHT22;16962;48.646;9.026;2023-06-19T01:26:16;21.10;93.90
30150;DHT22;16962;48.646;9.026;2023-06-19T01:29:06;21.00;82.30
30150;DHT22;16962;48.646;9.026;2023-06-19T01:32:11;21.00;63.40
30150;DHT22;16962;48.646;9.026;2023-06-19T01:35:04;21.00;53.90
30150;DHT22;16962;48.646;9.026;2023-06-19T01:37:52;21.00;96.30
30150;DHT22;16962;48.646;9.026;2023-06-19T01:40:41;20.90;99.90
30150;DHT22;16962;48.646;9.026;2023-06-19T01:43:30;20.80;99.90
30150;DHT22;16962;48.646;9.026;2023-06-19T01:46:18;20.80;99.90
30150;DHT22;16962;48.646;9.026;2023-06-19T01:49:09;20.70;99.90
30150;DHT22;16962;48.646;9.026;2023-06-19T01:51:59;20.60;99.90
30150;DHT22;16962;48.646;9.026;2023-06-19T01:54:47;20.50;99.90
30150;DHT22;16962;48.646;9.026;2023-06-19T01:57:35;20.50;99.90
30150;DHT22;16962;48.646;9.026;2023-06-19T02:00:23;20.50;99.90
30150;DHT22;16962;48.646;9.026;2023-06-19T02:03:11;20.50;99.90
30150;DHT22;16962;48.646;9.026;2023-06-19T02:05:58;20.50;99.90
30150;DHT22;16962;48.646;9.026;2023-06-19T02:08:45;20.50;99.90
30150;DHT22;16962;48.646;9.026;2023-06-19T02:11:32;20.40;99.90
30150;DHT22;16962;48.646;9.026;2023-06-19T02:14:20;20.30;99.90
30150;DHT22;16962;48.646;9.026;2023-06-19T02:17:10;20.30;99.90
30150;DHT22;16962;48.646;9.026;2023-06-19T02:19:58;20.30;99.90
30150;DHT22;16962;48.646;9.026;2023-06-19T02:22:45;20.30;99.90
30150;DHT22;16962;48.646;9.026;2023-06-19T02:25:35;20.30;99.90
30150;DHT22;16962;48.646;9.026;2023-06-19T02:28:23;20.20;99.90
30150;DHT22;16962;48.646;9.026;2023-06-19T02:31:10;20.20;99.90
30150;DHT22;16962;48.646;9.026;2023-06-19T02:33:57;20.20;99.90
30150;DHT22;16962;48.646;9.026;2023-06-19T02:36:47;20.20;99.90
30150;DHT22;16962;48.646;9.026;2023-06-19T02:39:34;20.20;99.90
30150;DHT22;16962;48.646;9.026;2023-06-19T02:42:22;20.20;99.90
30150;DHT22;16962;48.646;9.026;2023-06-19T02:45:09;20.20;99.90
30150;DHT22;16962;48.646;9.026;2023-06-19T02:47:59;20.20;99.90
30150;DHT22;16962;48.646;9.026;2023-06-19T02:50:46;20.10;99.90
30150;DHT22;16962;48.646;9.026;2023-06-19T02:53:33;20.10;99.90
30150;DHT22;16962;48.646;9.026;2023-06-19T02:56:22;20.10;99.90
30150;DHT22;16962;48.646;9.026;2023-06-19T02:59:09;20.10;99.90
30150;DHT22;16962;48.646;9.026;2023-06-19T03:01:56;20.10;99.90
30150;DHT22;16962;48.646;9.026;2023-06-19T03:04:44;20.00;99.90
30150;DHT22;16962;48.646;9.026;2023-06-19T03:07:31;20.00;99.90
30150;DHT22;16962;48.646;9.026;2023-06-19T03:10:22;19.90;99.90
30150;DHT22;16962;48.646;9.026;2023-06-19T03:13:09;19.80;99.90
30150;DHT22;16962;48.646;9.026;2023-06-19T03:15:57;19.80;99.90
30150;DHT22;16962;48.646;9.026;2023-06-19T03:18:44;19.70;99.90
30150;DHT22;16962;48.646;9.026;2023-06-19T03:21:32;19.70;99.90
30150;DHT22;16962;48.646;9.026;2023-06-19T03:24:22;19.70;99.90
30150;DHT22;16962;48.646;9.026;2023-06-19T03:27:13;19.70;99.90
30150;DHT22;16962;48.646;9.026;2023-06-19T03:30:00;19.70;99.90
30150;DHT22;16962;48.646;9.026;2023-06-19T03:32:47;19.60;99.90
30150;DHT22;16962;48.646;9.026;2023-06-19T03:35:35;19.60;99.90
30150;DHT22;16962;48.646;9.026;2023-06-19T03:38:24;19.70;99.90
30150;DHT22;16962;48.646;9.026;2023-06-19T03:41:11;19.70;99.90
30150;DHT22;16962;48.646;9.026;2023-06-19T03:43:59;19.80;99.90
30150;DHT22;16962;48.646;9.026;2023-06-19T03:46:48;19.70;99.90
30150;DHT22;16962;48.646;9.026;2023-06-19T03:49:37;19.60;99.90
30150;DHT22;16962;48.646;9.026;2023-06-19T03:52:24;19.60;99.90
30150;DHT22;16962;48.646;9.026;2023-06-19T03:55:11;19.60;99.90
30150;DHT22;16962;48.646;9.026;2023-06-19T03:58:06;19.60;99.90
30150;DHT22;16962;48.646;9.026;2023-06-19T04:05:13;19.40;99.90
30150;DHT22;16962;48.646;9.026;2023-06-19T04:08:01;19.20;99.90
30150;DHT22;16962;48.646;9.026;2023-06-19T04:10:48;19.00;99.90
30150;DHT22;16962;48.646;9.026;2023-06-19T04:13:35;19.00;99.90
30150;DHT22;16962;48.646;9.026;2023-06-19T04:17:15;19.00;99.90
30150;DHT22;16962;48.646;9.026;2023-06-19T04:20:03;19.10;99.90
30150;DHT22;16962;48.646;9.026;2023-06-19T04:22:58;19.00;99.90
30150;DHT22;16962;48.646;9.026;2023-06-19T04:25:45;19.10;99.90
30150;DHT22;16962;48.646;9.026;2023-06-19T04:28:32;19.10;99.90
30150;DHT22;16962;48.646;9.026;2023-06-19T04:31:22;19.10;99.90
30150;DHT22;16962;48.646;9.026;2023-06-19T04:34:10;19.10;99.90
30150;DHT22;16962;48.646;9.026;2023-06-19T04:36:57;19.10;99.90
30150;DHT22;16962;48.646;9.026;2023-06-19T04:39:46;19.10;99.90
30150;DHT22;16962;48.646;9.026;2023-06-19T04:42:33;19.00;99.90
30150;DHT22;16962;48.646;9.026;2023-06-19T04:45:20;19.00;99.90
30150;DHT22;16962;48.646;9.026;2023-06-19T04:48:08;19.00;99.90
30150;DHT22;16962;48.646;9.026;2023-06-19T04:50:58;19.10;99.90
30150;DHT22;16962;48.646;9.026;2023-06-19T04:53:48;19.10;99.90
30150;DHT22;16962;48.646;9.026;2023-06-19T04:56:35;19.10;99.90
30150;DHT22;16962;48.646;9.026;2023-06-19T04:59:22;19.10;99.90
30150;DHT22;16962;48.646;9.026;2023-06-19T05:02:12;19.10;99.90
30150;DHT22;16962;48.646;9.026;2023-06-19T05:10:28;19.20;99.90
30150;DHT22;16962;48.646;9.026;2023-06-19T05:13:20;19.30;99.90
30150;DHT22;16962;48.646;9.026;2023-06-19T05:16:08;19.40;99.90
30150;DHT22;16962;48.646;9.026;2023-06-19T05:18:55;19.30;99.90
30150;DHT22;16962;48.646;9.026;2023-06-19T05:21:45;19.40;99.90
30150;DHT22;16962;48.646;9.026;2023-06-19T05:24:33;19.50;99.90
30150;DHT22;16962;48.646;9.026;2023-06-19T05:27:20;19.60;99.90
30150;DHT22;16962;48.646;9.026;2023-06-19T05:30:12;19.70;99.90
30150;DHT22;16962;48.646;9.026;2023-06-19T05:33:02;19.80;99.90
30150;DHT22;16962;48.646;9.026;2023-06-19T05:35:51;19.80;99.90
30150;DHT22;16962;48.646;9.026;2023-06-19T05:38:50;19.80;99.90
30150;DHT22;16962;48.646;9.026;2023-06-19T05:41:37;19.80;99.90
30150;DHT22;16962;48.646;9.026;2023-06-19T05:44:26;19.80;99.90
30150;DHT22;16962;48.646;9.026;2023-06-19T05:47:13;19.80;99.90
30150;DHT22;16962;48.646;9.026;2023-06-19T05:50:04;19.80;99.90
30150;DHT22;16962;48.646;9.026;2023-06-19T05:53:01;19.90;99.90
30150;DHT22;16962;48.646;9.026;2023-06-19T06:04:11;20.20;99.90
30150;DHT22;16962;48.646;9.026;2023-06-19T06:07:02;20.30;99.90
30150;DHT22;16962;48.646;9.026;2023-06-19T06:09:52;20.40;99.90
30150;DHT22;16962;48.646;9.026;2023-06-19T06:12:39;20.40;99.90
30150;DHT22;16962;48.646;9.026;2023-06-19T06:15:27;20.50;99.90
30150;DHT22;16962;48.646;9.026;2023-06-19T06:19:03;20.60;99.90
30150;DHT22;16962;48.646;9.026;2023-06-19T06:22:22;20.70;99.90
30150;DHT22;16962;48.646;9.026;2023-06-19T06:25:15;20.90;99.90
30150;DHT22;16962;48.646;9.026;2023-06-19T06:28:02;21.00;99.90
30150;DHT22;16962;48.646;9.026;2023-06-19T06:30:52;21.10;99.90
30150;DHT22;16962;48.646;9.026;2023-06-19T06:33:58;21.00;99.90
30150;DHT22;16962;48.646;9.026;2023-06-19T06:36:53;20.70;99.90
30150;DHT22;16962;48.646;9.026;2023-06-19T06:39:52;20.50;99.90
30150;DHT22;16962;48.646;9.026;2023-06-19T06:42:39;20.70;99.90
30150;DHT22;16962;48.646;9.026;2023-06-19T06:45:36;20.90;99.90
30150;DHT22;16962;48.646;9.026;2023-06-19T06:48:35;21.30;99.90
30150;DHT22;16962;48.646;9.026;2023-06-19T06:51:54;21.60;99.90
30150;DHT22;16962;48.646;9.026;2023-06-19T06:54:45;21.80;99.90
30150;DHT22;16962;48.646;9.026;2023-06-19T06:57:34;21.90;99.90
30150;DHT22;16962;48.646;9.026;2023-06-19T07:00:23;21.80;99.90
30150;DHT22;16962;48.646;9.026;2023-06-19T07:03:11;21.90;99.90
30150;DHT22;16962;48.646;9.026;2023-06-19T07:06:04;22.20;99.90
30150;DHT22;16962;48.646;9.026;2023-06-19T07:08:56;22.50;99.90
30150;DHT22;16962;48.646;9.026;2023-06-19T07:11:45;22.60;99.90
30150;DHT22;16962;48.646;9.026;2023-06-19T07:14:32;22.50;99.90
30150;DHT22;16962;48.646;9.026;2023-06-19T07:17:23;22.60;99.90
30150;DHT22;16962;48.646;9.026;2023-06-19T07:20:11;22.50;99.90
30150;DHT22;16962;48.646;9.026;2023-06-19T07:22:59;22.50;99.90
30150;DHT22;16962;48.646;9.026;2023-06-19T07:25:47;22.60;99.90
30150;DHT22;16962;48.646;9.026;2023-06-19T07:28:34;22.80;99.90
30150;DHT22;16962;48.646;9.026;2023-06-19T07:31:25;23.30;99.90
30150;DHT22;16962;48.646;9.026;2023-06-19T07:34:15;23.80;99.90
30150;DHT22;16962;48.646;9.026;2023-06-19T07:37:02;23.80;99.90
30150;DHT22;16962;48.646;9.026;2023-06-19T07:39:51;24.10;99.90
30150;DHT22;16962;48.646;9.026;2023-06-19T07:42:39;23.80;99.90
30150;DHT22;16962;48.646;9.026;2023-06-19T07:45:30;23.40;99.90
30150;DHT22;16962;48.646;9.026;2023-06-19T07:48:18;23.20;99.90
30150;DHT22;16962;48.646;9.026;2023-06-19T07:51:07;23.00;99.90
30150;DHT22;16962;48.646;9.026;2023-06-19T07:53:55;22.80;99.90
30150;DHT22;16962;48.646;9.026;2023-06-19T07:56:44;22.80;99.90
30150;DHT22;16962;48.646;9.026;2023-06-19T08:16:34;24.10;92.30
30150;DHT22;16962;48.646;9.026;2023-06-19T08:24:04;24.40;85.20
30150;DHT22;16962;48.646;9.026;2023-06-19T08:27:06;25.00;99.90
30150;DHT22;16962;48.646;9.026;2023-06-19T08:29:54;25.40;95.90
30150;DHT22;16962;48.646;9.026;2023-06-19T08:32:48;26.10;79.50
30150;DHT22;16962;48.646;9.026;2023-06-19T08:35:41;26.60;53.20
30150;DHT22;16962;48.646;9.026;2023-06-19T08:38:38;26.90;38.00
30150;DHT22;16962;48.646;9.026;2023-06-19T08:41:26;28.00;25.00
30150;DHT22;16962;48.646;9.026;2023-06-19T08:44:16;28.00;21.70
30150;DHT22;16962;48.646;9.026;2023-06-19T08:47:06;27.90;28.30
30150;DHT22;16962;48.646;9.026;2023-06-19T08:49:56;27.70;16.00
30150;DHT22;16962;48.646;9.026;2023-06-19T08:52:50;27.00;11.30
30150;DHT22;16962;48.646;9.026;2023-06-19T08:55:50;26.30;17.00
30150;DHT22;16962;48.646;9.026;2023-06-19T08:59:21;25.90;23.80
30150;DHT22;16962;48.646;9.026;2023-06-19T09:02:21;25.40;29.20
30150;DHT22;16962;48.646;9.026;2023-06-19T09:05:17;25.10;52.40
30150;DHT22;16962;48.646;9.026;2023-06-19T09:08:13;24.80;11.30
30150;DHT22;16962;48.646;9.026;2023-06-19T09:11:13;24.50;33.80
30150;DHT22;16962;48.646;9.026;2023-06-19T09:17:50;24.30;44.30
30150;DHT22;16962;48.646;9.026;2023-06-19T09:21:18;24.10;38.30
30150;DHT22;16962;48.646;9.026;2023-06-19T09:24:09;24.10;56.70
30150;DHT22;16962;48.646;9.026;2023-06-19T09:27:36;24.50;53.50
30150;DHT22;16962;48.646;9.026;2023-06-19T09:30:37;24.80;50.90
30150;DHT22;16962;48.646;9.026;2023-06-19T09:33:30;25.40;22.00
30150;DHT22;16962;48.646;9.026;2023-06-19T09:36:25;26.70;22.30
30150;DHT22;16962;48.646;9.026;2023-06-19T09:39:16;27.90;21.70
30150;DHT22;16962;48.646;9.026;2023-06-19T09:42:07;28.40;23.10
30150;DHT22;16962;48.646;9.026;2023-06-19T09:45:15;28.90;6.70
30150;DHT22;16962;48.646;9.026;2023-06-19T09:48:08;29.80;13.30
30150;DHT22;16962;48.646;9.026;2023-06-19T09:51:53;30.60;12.10
30150;DHT22;16962;48.646;9.026;2023-06-19T09:54:34;30.20;5.00
30150;DHT22;16962;48.646;9.026;2023-06-19T09:57:24;31.70;1.00
30150;DHT22;16962;48.646;9.026;2023-06-19T10:00:12;32.10;10.80
30150;DHT22;16962;48.646;9.026;2023-06-19T10:03:02;33.30;50.70
30150;DHT22;16962;48.646;9.026;2023-06-19T10:05:58;33.50;1.00
30150;DHT22;16962;48.646;9.026;2023-06-19T10:08:53;33.80;61.80
30150;DHT22;16962;48.646;9.026;2023-06-19T10:11:51;32.30;51.10
30150;DHT22;16962;48.646;9.026;2023-06-19T10:14:46;32.10;42.60
30150;DHT22;16962;48.646;9.026;2023-06-19T10:17:47;33.00;29.90
30150;DHT22;16962;48.646;9.026;2023-06-19T10:20:36;32.30;31.10
30150;DHT22;16962;48.646;9.026;2023-06-19T10:23:39;32.10;36.10
30150;DHT22;16962;48.646;9.026;2023-06-19T10:26:56;31.90;43.20
30150;DHT22;16962;48.646;9.026;2023-06-19T10:29:44;31.60;42.70
30150;DHT22;16962;48.646;9.026;2023-06-19T10:32:49;31.00;45.80
30150;DHT22;16962;48.646;9.026;2023-06-19T10:35:39;30.40;19.20
30150;DHT22;16962;48.646;9.026;2023-06-19T10:38:29;30.90;33.00
30150;DHT22;16962;48.646;9.026;2023-06-19T10:41:21;31.70;49.70
30150;DHT22;16962;48.646;9.026;2023-06-19T10:44:11;32.30;36.50
30150;DHT22;16962;48.646;9.026;2023-06-19T10:47:06;33.20;44.00
30150;DHT22;16962;48.646;9.026;2023-06-19T10:49:54;32.90;49.90
30150;DHT22;16962;48.646;9.026;2023-06-19T10:52:43;32.70;95.30
30150;DHT22;16962;48.646;9.026;2023-06-19T10:55:31;32.50;22.80
30150;DHT22;16962;48.646;9.026;2023-06-19T10:58:25;31.70;18.40
30150;DHT22;16962;48.646;9.026;2023-06-19T11:01:13;30.80;29.40
30150;DHT22;16962;48.646;9.026;2023-06-19T11:04:04;31.00;34.50
30150;DHT22;16962;48.646;9.026;2023-06-19T11:06:52;31.20;15.60
30150;DHT22;16962;48.646;9.026;2023-06-19T11:09:39;31.50;38.70
30150;DHT22;16962;48.646;9.026;2023-06-19T11:12:31;31.50;35.20
30150;DHT22;16962;48.646;9.026;2023-06-19T11:15:20;32.70;35.50
30150;DHT22;16962;48.646;9.026;2023-06-19T11:18:11;33.90;27.30
30150;DHT22;16962;48.646;9.026;2023-06-19T11:21:02;32.80;29.30
30150;DHT22;16962;48.646;9.026;2023-06-19T11:23:52;32.10;31.30
30150;DHT22;16962;48.646;9.026;2023-06-19T11:26:41;31.90;25.20
30150;DHT22;16962;48.646;9.026;2023-06-19T11:29:31;31.50;25.50
30150;DHT22;16962;48.646;9.026;2023-06-19T11:32:31;31.00;30.20
30150;DHT22;16962;48.646;9.026;2023-06-19T11:35:18;30.20;41.00
30150;DHT22;16962;48.646;9.026;2023-06-19T11:38:06;30.00;80.90
30150;DHT22;16962;48.646;9.026;2023-06-19T11:48:25;29.00;39.20
30150;DHT22;16962;48.646;9.026;2023-06-19T11:55:29;28.60;45.50
30150;DHT22;16962;48.646;9.026;2023-06-19T12:03:04;30.30;61.20
30150;DHT22;16962;48.646;9.026;2023-06-19T12:10:45;32.60;61.20
30150;DHT22;16962;48.646;9.026;2023-06-19T12:14:07;33.70;47.90
30150;DHT22;16962;48.646;9.026;2023-06-19T12:18:12;35.60;45.60
30150;DHT22;16962;48.646;9.026;2023-06-19T12:21:28;37.60;67.90
30150;DHT22;16962;48.646;9.026;2023-06-19T12:24:37;38.90;67.00
30150;DHT22;16962;48.646;9.026;2023-06-19T12:35:39;35.80;99.90
30150;DHT22;16962;48.646;9.026;2023-06-19T12:47:39;34.90;99.90
30150;DHT22;16962;48.646;9.026;2023-06-19T12:54:17;37.50;99.90
30150;DHT22;16962;48.646;9.026;2023-06-19T12:57:05;38.00;99.90
30150;DHT22;16962;48.646;9.026;2023-06-19T12:59:52;38.00;99.90
30150;DHT22;16962;48.646;9.026;2023-06-19T13:02:42;38.40;99.90
30150;DHT22;16962;48.646;9.026;2023-06-19T13:05:30;38.90;99.90
30150;DHT22;16962;48.646;9.026;2023-06-19T13:08:17;39.00;99.90
30150;DHT22;16962;48.646;9.026;2023-06-19T13:11:05;39.00;99.90
30150;DHT22;16962;48.646;9.026;2023-06-19T13:13:56;39.40;99.90
30150;DHT22;16962;48.646;9.026;2023-06-19T13:16:46;38.10;99.90
30150;DHT22;16962;48.646;9.026;2023-06-19T13:19:34;37.50;99.90
30150;DHT22;16962;48.646;9.026;2023-06-19T13:22:35;36.40;99.90
30150;DHT22;16962;48.646;9.026;2023-06-19T13:25:23;36.10;99.90
30150;DHT22;16962;48.646;9.026;2023-06-19T13:28:10;36.10;99.90
30150;DHT22;16962;48.646;9.026;2023-06-19T13:31:00;34.60;90.30
30150;DHT22;16962;48.646;9.026;2023-06-19T13:33:48;34.50;99.90
30150;DHT22;16962;48.646;9.026;2023-06-19T13:36:35;35.10;91.60
30150;DHT22;16962;48.646;9.026;2023-06-19T13:39:22;36.40;85.60
30150;DHT22;16962;48.646;9.026;2023-06-19T13:42:12;36.60;99.90
30150;DHT22;16962;48.646;9.026;2023-06-19T13:45:00;36.10;99.90
30150;DHT22;16962;48.646;9.026;2023-06-19T13:47:49;35.20;99.90
30150;DHT22;16962;48.646;9.026;2023-06-19T13:50:37;35.50;99.90
30150;DHT22;16962;48.646;9.026;2023-06-19T13:53:28;35.90;99.90
30150;DHT22;16962;48.646;9.026;2023-06-19T13:56:17;36.10;99.90
30150;DHT22;16962;48.646;9.026;2023-06-19T13:59:05;36.20;99.90
30150;DHT22;16962;48.646;9.026;2023-06-19T14:01:52;36.60;99.90
30150;DHT22;16962;48.646;9.026;2023-06-19T14:04:40;36.80;99.90
30150;DHT22;16962;48.646;9.026;2023-06-19T14:07:28;36.40;99.90
30150;DHT22;16962;48.646;9.026;2023-06-19T14:10:15;35.90;99.90
30150;DHT22;16962;48.646;9.026;2023-06-19T14:13:03;35.10;99.90
30150;DHT22;16962;48.646;9.026;2023-06-19T14:15:50;35.30;99.90
30150;DHT22;16962;48.646;9.026;2023-06-19T14:18:38;35.00;99.90
30150;DHT22;16962;48.646;9.026;2023-06-19T14:21:26;34.10;99.90
30150;DHT22;16962;48.646;9.026;2023-06-19T14:24:14;34.10;99.90
30150;DHT22;16962;48.646;9.026;2023-06-19T14:27:01;34.50;99.90
30150;DHT22;16962;48.646;9.026;2023-06-19T14:29:49;33.90;99.90
30150;DHT22;16962;48.646;9.026;2023-06-19T14:32:37;33.80;99.90
30150;DHT22;16962;48.646;9.026;2023-06-19T14:35:25;33.80;99.90
30150;DHT22;16962;48.646;9.026;2023-06-19T14:38:15;33.80;99.90
30150;DHT22;16962;48.646;9.026;2023-06-19T14:41:05;33.50;99.90
30150;DHT22;16962;48.646;9.026;2023-06-19T14:43:53;33.40;99.90
30150;DHT22;16962;48.646;9.026;2023-06-19T14:46:40;32.80;99.90
30150;DHT22;16962;48.646;9.026;2023-06-19T14:49:28;33.40;99.90
30150;DHT22;16962;48.646;9.026;2023-06-19T14:52:18;34.50;99.90
30150;DHT22;16962;48.646;9.026;2023-06-19T14:55:05;34.70;99.90
30150;DHT22;16962;48.646;9.026;2023-06-19T14:57:53;34.30;99.90
30150;DHT22;16962;48.646;9.026;2023-06-19T15:00:41;34.60;99.90
30150;DHT22;16962;48.646;9.026;2023-06-19T15:03:28;35.80;99.90
30150;DHT22;16962;48.646;9.026;2023-06-19T15:06:16;36.40;99.90
30150;DHT22;16962;48.646;9.026;2023-06-19T15:09:04;36.40;99.90
30150;DHT22;16962;48.646;9.026;2023-06-19T15:11:51;35.80;99.30
30150;DHT22;16962;48.646;9.026;2023-06-19T15:14:41;35.00;99.90
30150;DHT22;16962;48.646;9.026;2023-06-19T15:17:30;33.50;99.90
30150;DHT22;16962;48.646;9.026;2023-06-19T15:20:18;33.10;99.90
30150;DHT22;16962;48.646;9.026;2023-06-19T15:23:08;32.90;99.90
30150;DHT22;16962;48.646;9.026;2023-06-19T15:25:55;32.70;99.90
30150;DHT22;16962;48.646;9.026;2023-06-19T15:28:45;32.70;99.90
30150;DHT22;16962;48.646;9.026;2023-06-19T15:31:34;32.90;99.90
30150;DHT22;16962;48.646;9.026;2023-06-19T15:34:23;32.90;99.90
30150;DHT22;16962;48.646;9.026;2023-06-19T15:37:10;32.00;99.90
30150;DHT22;16962;48.646;9.026;2023-06-19T15:39:58;31.40;99.90
30150;DHT22;16962;48.646;9.026;2023-06-19T15:42:47;31.00;99.90
30150;DHT22;16962;48.646;9.026;2023-06-19T15:45:36;31.40;99.90
30150;DHT22;16962;48.646;9.026;2023-06-19T15:48:24;32.00;99.90
30150;DHT22;16962;48.646;9.026;2023-06-19T15:51:14;32.80;99.90
30150;DHT22;16962;48.646;9.026;2023-06-19T15:54:09;32.70;99.90
30150;DHT22;16962;48.646;9.026;2023-06-19T15:56:57;32.00;99.90
30150;DHT22;16962;48.646;9.026;2023-06-19T15:59:45;31.50;99.90
30150;DHT22;16962;48.646;9.026;2023-06-19T16:02:37;31.10;99.90
30150;DHT22;16962;48.646;9.026;2023-06-19T16:05:24;30.70;99.90
30150;DHT22;16962;48.646;9.026;2023-06-19T16:08:12;30.30;99.90
30150;DHT22;16962;48.646;9.026;2023-06-19T16:11:00;30.10;99.90
30150;DHT22;16962;48.646;9.026;2023-06-19T16:13:49;29.70;99.90
30150;DHT22;16962;48.646;9.026;2023-06-19T16:16:37;29.30;99.90
30150;DHT22;16962;48.646;9.026;2023-06-19T16:19:24;28.70;99.90
30150;DHT22;16962;48.646;9.026;2023-06-19T16:22:15;28.20;99.90
30150;DHT22;16962;48.646;9.026;2023-06-19T16:25:02;28.10;99.90
30150;DHT22;16962;48.646;9.026;2023-06-19T16:27:51;28.10;99.90
30150;DHT22;16962;48.646;9.026;2023-06-19T16:30:38;28.30;41.40
30150;DHT22;16962;48.646;9.026;2023-06-19T16:33:25;28.40;99.90
30150;DHT22;16962;48.646;9.026;2023-06-19T16:36:13;28.50;99.90
30150;DHT22;16962;48.646;9.026;2023-06-19T16:39:00;28.40;99.90
30150;DHT22;16962;48.646;9.026;2023-06-19T16:41:48;28.30;99.90
30150;DHT22;16962;48.646;9.026;2023-06-19T16:44:35;28.00;99.90
30150;DHT22;16962;48.646;9.026;2023-06-19T16:47:23;27.70;99.90
30150;DHT22;16962;48.646;9.026;2023-06-19T16:50:10;27.50;99.90
30150;DHT22;16962;48.646;9.026;2023-06-19T16:53:00;27.40;40.10
30150;DHT22;16962;48.646;9.026;2023-06-19T16:55:49;27.40;99.90
30150;DHT22;16962;48.646;9.026;2023-06-19T16:58:42;27.30;99.90
30150;DHT22;16962;48.646;9.026;2023-06-19T17:01:30;27.20;99.90
30150;DHT22;16962;48.646;9.026;2023-06-19T17:04:17;27.10;99.90
30150;DHT22;16962;48.646;9.026;2023-06-19T17:07:05;27.10;99.90
30150;DHT22;16962;48.646;9.026;2023-06-19T17:09:53;26.90;99.90
30150;DHT22;16962;48.646;9.026;2023-06-19T17:12:41;26.70;99.90
30150;DHT22;16962;48.646;9.026;2023-06-19T17:15:28;26.60;99.90
30150;DHT22;16962;48.646;9.026;2023-06-19T17:18:18;26.50;99.90
30150;DHT22;16962;48.646;9.026;2023-06-19T17:21:08;26.40;99.90
30150;DHT22;16962;48.646;9.026;2023-06-19T17:23:58;26.50;99.90
30150;DHT22;16962;48.646;9.026;2023-06-19T17:26:46;26.50;99.90
30150;DHT22;16962;48.646;9.026;2023-06-19T17:29:33;26.50;99.90
30150;DHT22;16962;48.646;9.026;2023-06-19T17:32:21;26.60;99.90
30150;DHT22;16962;48.646;9.026;2023-06-19T17:35:08;26.70;99.90
30150;DHT22;16962;48.646;9.026;2023-06-19T17:37:56;26.70;99.90
30150;DHT22;16962;48.646;9.026;2023-06-19T17:40:45;26.60;99.90
30150;DHT22;16962;48.646;9.026;2023-06-19T17:43:36;26.60;99.90
30150;DHT22;16962;48.646;9.026;2023-06-19T17:46:24;26.60;99.90
30150;DHT22;16962;48.646;9.026;2023-06-19T17:49:11;26.50;99.90
30150;DHT22;16962;48.646;9.026;2023-06-19T17:51:59;26.50;99.90
30150;DHT22;16962;48.646;9.026;2023-06-19T17:54:46;26.50;99.90
30150;DHT22;16962;48.646;9.026;2023-06-19T17:57:37;26.50;99.90
30150;DHT22;16962;48.646;9.026;2023-06-19T18:00:27;26.50;99.90
30150;DHT22;16962;48.646;9.026;2023-06-19T18:03:16;26.50;99.90
30150;DHT22;16962;48.646;9.026;2023-06-19T18:06:04;26.40;99.90
30150;DHT22;16962;48.646;9.026;2023-06-19T18:08:53;26.40;99.90
30150;DHT22;16962;48.646;9.026;2023-06-19T18:11:42;26.40;99.90
30150;DHT22;16962;48.646;9.026;2023-06-19T18:14:32;26.40;99.90
30150;DHT22;16962;48.646;9.026;2023-06-19T18:17:20;26.20;99.90
30150;DHT22;16962;48.646;9.026;2023-06-19T18:20:10;26.20;99.90
30150;DHT22;16962;48.646;9.026;2023-06-19T18:22:58;26.20;99.90
30150;DHT22;16962;48.646;9.026;2023-06-19T18:25:46;26.10;99.90
30150;DHT22;16962;48.646;9.026;2023-06-19T18:28:36;25.90;99.90
30150;DHT22;16962;48.646;9.026;2023-06-19T18:31:23;25.80;99.90
30150;DHT22;16962;48.646;9.026;2023-06-19T18:34:14;25.50;99.90
30150;DHT22;16962;48.646;9.026;2023-06-19T18:37:01;25.30;99.90
30150;DHT22;16962;48.646;9.026;2023-06-19T18:39:51;25.10;99.90
30150;DHT22;16962;48.646;9.026;2023-06-19T18:42:39;24.90;99.90
30150;DHT22;16962;48.646;9.026;2023-06-19T18:45:30;24.80;99.90
30150;DHT22;16962;48.646;9.026;2023-06-19T18:48:19;24.60;99.90
30150;DHT22;16962;48.646;9.026;2023-06-19T18:51:07;24.50;99.90
30150;DHT22;16962;48.646;9.026;2023-06-19T18:53:57;24.30;99.90
30150;DHT22;16962;48.646;9.026;2023-06-19T18:56:44;24.20;99.90
30150;DHT22;16962;48.646;9.026;2023-06-19T18:59:32;24.10;99.90
30150;DHT22;16962;48.646;9.026;2023-06-19T19:02:22;24.00;99.90
30150;DHT22;16962;48.646;9.026;2023-06-19T19:05:13;23.90;99.90
30150;DHT22;16962;48.646;9.026;2023-06-19T19:08:03;23.80;99.90
30150;DHT22;16962;48.646;9.026;2023-06-19T19:10:50;23.70;99.90
30150;DHT22;16962;48.646;9.026;2023-06-19T19:13:37;23.60;99.90
30150;DHT22;16962;48.646;9.026;2023-06-19T19:16:25;23.50;99.90
30150;DHT22;16962;48.646;9.026;2023-06-19T19:19:13;23.40;99.90
30150;DHT22;16962;48.646;9.026;2023-06-19T19:22:00;23.40;99.90
30150;DHT22;16962;48.646;9.026;2023-06-19T19:24:48;23.30;99.90